Time;durP1;ratioP1;P1;durP2;ratioP2;P2;SDS_P1;SDS_P2;PMS_P1;PMS_P2;Temp;Humidity;BMP_temperature;BMP_pressure;BME280_temperature;BME280_humidity;BME280_pressure;Samples;Min_cycle;Max_cycle;Signal;HPM_P1;HPM_P2
2022/06/17 00:01:31;;;;;;;15.30;11.90;;;;;;;15.22;88.31;98573.27;106347;1280;25354;-85
2022/06/17 00:03:58;;;;;;;13.80;11.60;;;;;;;15.15;88.30;98571.83;106141;1280;22585;-86
2022/06/17 00:06:34;;;;;;;13.30;11.30;;;;;;;15.09;88.51;98567.48;106012;1280;138015;-86
2022/06/17 00:09:02;;;;;;;20.80;12.20;;;;;;;15.05;88.34;98568.63;106159;1278;22570;-86
2022/06/17 00:11:38;;;;;;;13.70;12.20;;;;;;;15.01;88.78;98566.54;106026;1278;139107;-86
2022/06/17 00:14:13;;;;;;;15.90;12.80;;;;;;;14.98;88.66;98562.86;106342;1277;22690;-86
2022/06/17 00:16:41;;;;;;;17.50;14.30;;;;;;;14.98;89.02;98566.48;106267;1277;22574;-85
2022/06/17 00:19:10;;;;;;;21.70;14.90;;;;;;;14.99;88.94;98565.76;106168;1280;137809;-86
2022/06/17 00:21:43;;;;;;;20.80;15.10;;;;;;;14.99;88.86;98559.28;106483;1277;22571;-86
2022/06/17 00:24:30;;;;;;;15.40;13.80;;;;;;;15.02;88.70;98554.91;106112;1278;138238;-86
2022/06/17 00:26:57;;;;;;;17.70;13.60;;;;;;;15.03;88.70;98548.45;106288;1278;22569;-85
2022/06/17 00:29:27;;;;;;;17.20;14.60;;;;;;;15.05;88.67;98545.86;106300;1281;138621;-85
2022/06/17 00:31:54;;;;;;;21.70;16.80;;;;;;;15.08;88.66;98542.42;106214;1277;22832;-85
2022/06/17 00:34:21;;;;;;;21.00;16.30;;;;;;;15.09;88.49;98541.70;106149;1278;25273;-85
2022/06/17 00:36:48;;;;;;;18.70;16.50;;;;;;;15.11;88.63;98543.90;106260;1277;150592;-85
2022/06/17 00:39:19;;;;;;;20.10;16.50;;;;;;;15.14;88.48;98543.13;106221;1278;22579;-85
2022/06/17 00:41:50;;;;;;;20.30;15.50;;;;;;;15.18;88.42;98549.23;106027;1278;138216;-85
2022/06/17 00:44:38;;;;;;;20.10;16.20;;;;;;;15.21;87.90;98546.10;106182;1280;22583;-85
2022/06/17 00:47:27;;;;;;;20.70;17.10;;;;;;;15.17;87.52;98543.63;106221;1280;137487;-85
2022/06/17 00:50:09;;;;;;;19.80;17.10;;;;;;;15.11;87.26;98542.70;106051;1279;25458;-85
2022/06/17 00:52:50;;;;;;;19.50;15.10;;;;;;;15.10;87.55;98540.88;106254;1278;22585;-85
2022/06/17 00:55:25;;;;;;;18.40;15.60;;;;;;;15.05;87.05;98549.48;106390;1277;25310;-84
2022/06/17 00:57:52;;;;;;;23.10;17.20;;;;;;;15.01;87.07;98554.35;106051;1278;22573;-84
2022/06/17 01:00:23;;;;;;;24.60;18.20;;;;;;;14.97;87.29;98556.98;106097;1277;137865;-84
2022/06/17 01:02:53;;;;;;;25.10;17.20;;;;;;;14.95;87.40;98558.90;106284;1278;22307;-85
2022/06/17 01:05:32;;;;;;;18.30;15.30;;;;;;;14.90;87.02;98552.38;106318;1280;138439;-85
2022/06/17 01:08:12;;;;;;;20.60;16.50;;;;;;;14.90;87.58;98556.15;106314;1280;23223;-84
2022/06/17 01:10:43;;;;;;;;;;;;;;;14.96;87.81;98554.08;106226;1280;25323;-84
2022/06/17 01:13:11;;;;;;;22.80;17.70;;;;;;;14.97;87.30;98562.38;106433;1277;123867;-85
2022/06/17 01:15:42;;;;;;;24.90;19.10;;;;;;;14.95;87.52;98565.82;106308;1277;25445;-85
2022/06/17 01:18:12;;;;;;;22.10;19.10;;;;;;;14.97;87.62;98571.52;106140;1278;138250;-83
2022/06/17 01:20:42;;;;;;;19.70;17.50;;;;;;;14.99;87.50;98574.44;106482;1277;22560;-84
2022/06/17 01:23:13;;;;;;;21.20;17.60;;;;;;;15.00;87.44;98570.26;106221;1277;138467;-84
2022/06/17 01:25:44;;;;;;;23.50;16.60;;;;;;;15.02;87.41;98570.82;106602;1277;22543;-86
2022/06/17 01:28:14;;;;;;;23.00;17.70;;;;;;;15.02;87.41;98573.52;106319;1277;24237;-84
2022/06/17 01:30:55;;;;;;;23.10;18.10;;;;;;;15.02;87.24;98575.60;106159;1277;138115;-84
2022/06/17 01:33:32;;;;;;;23.80;17.90;;;;;;;14.99;87.23;98584.70;105887;1277;22721;-85
2022/06/17 01:36:10;;;;;;;21.30;18.40;;;;;;;14.97;87.13;98589.46;106403;1279;138056;-85
2022/06/17 01:38:39;;;;;;;26.60;17.00;;;;;;;14.97;87.34;98591.21;105922;1278;22583;-85
2022/06/17 01:41:08;;;;;;;24.30;16.80;;;;;;;14.96;87.38;98590.20;106165;1277;138572;-84
2022/06/17 01:43:54;;;;;;;20.60;16.40;;;;;;;14.95;87.19;98596.09;105981;1280;22704;-84
2022/06/17 01:46:34;;;;;;;19.00;16.30;;;;;;;14.96;87.32;98595.60;106078;1277;22714;-83
2022/06/17 01:49:22;;;;;;;24.50;16.80;;;;;;;14.96;87.55;98597.13;106017;1280;137978;-83
2022/06/17 01:52:03;;;;;;;22.30;17.70;;;;;;;15.00;87.53;98598.73;106488;1277;25391;-83
2022/06/17 01:54:38;;;;;;;21.80;16.60;;;;;;;14.98;87.41;98600.32;106141;1278;137830;-84
2022/06/17 01:57:09;;;;;;;23.30;15.80;;;;;;;14.98;87.53;98606.52;106235;1280;25330;-84
2022/06/17 01:59:48;;;;;;;19.40;15.50;;;;;;;14.99;87.29;98608.93;105973;1280;138237;-84
2022/06/17 02:02:16;;;;;;;21.50;16.20;;;;;;;14.98;87.18;98613.05;106337;1280;24333;-82
2022/06/17 02:04:50;;;;;;;21.90;16.80;;;;;;;14.99;87.23;98614.54;106276;1277;22580;-83
2022/06/17 02:07:26;;;;;;;25.20;18.00;;;;;;;15.01;87.11;98615.52;106209;1278;22698;-83
2022/06/17 02:09:54;;;;;;;21.60;17.40;;;;;;;14.97;86.94;98613.59;106206;1277;25484;-82
2022/06/17 02:12:24;;;;;;;22.30;15.60;;;;;;;14.95;87.04;98614.75;106552;1277;138309;-82
2022/06/17 02:14:57;;;;;;;22.60;14.60;;;;;;;14.93;86.96;98615.29;106441;1280;22620;-82
2022/06/17 02:17:46;;;;;;;22.60;16.90;;;;;;;14.91;87.07;98612.80;105982;1279;138132;-82
2022/06/17 02:20:28;;;;;;;23.60;17.70;;;;;;;14.88;87.13;98615.38;106465;1277;25476;-82
2022/06/17 02:22:56;;;;;;;25.40;16.40;;;;;;;14.88;87.42;98615.48;105940;1280;137788;-82
2022/06/17 02:25:30;;;;;;;18.80;16.50;;;;;;;14.87;87.25;98615.91;106283;1277;31145;-82
2022/06/17 02:28:00;;;;;;;21.00;15.90;;;;;;;14.86;87.35;98625.84;106374;1277;22567;-82
2022/06/17 02:30:29;;;;;;;22.40;16.70;;;;;;;14.86;87.34;98629.41;105944;1278;137790;-81
2022/06/17 02:33:01;;;;;;;24.60;16.00;;;;;;;14.84;87.39;98628.35;106147;1278;24397;-81
2022/06/17 02:35:37;;;;;;;22.20;16.10;;;;;;;14.83;87.50;98630.60;106093;1277;138154;-82
2022/06/17 02:38:06;;;;;;;17.80;14.80;;;;;;;14.80;87.69;98634.16;106256;1278;22584;-82
2022/06/17 02:40:41;;;;;;;16.40;14.20;;;;;;;14.79;87.68;98630.98;106396;1278;24155;-82
2022/06/17 02:43:19;;;;;;;22.60;15.60;;;;;;;14.82;87.83;98628.02;106372;1277;138199;-82
2022/06/17 02:45:53;;;;;;;19.10;16.00;;;;;;;14.83;87.93;98625.79;106138;1278;22767;-81
2022/06/17 02:48:26;;;;;;;25.50;16.20;;;;;;;14.85;87.90;98627.92;106081;1278;138410;-83
2022/06/17 02:50:57;;;;;;;18.70;14.30;;;;;;;14.86;87.98;98633.90;106176;1277;22556;-82
2022/06/17 02:53:32;;;;;;;15.40;13.80;;;;;;;14.88;87.68;98639.95;106440;1277;138688;-82
2022/06/17 02:56:03;;;;;;;24.10;15.40;;;;;;;14.90;87.82;98644.77;106716;1277;22555;-82
2022/06/17 02:59:05;;;;;;;18.50;15.80;;;;;;;14.93;87.75;98645.11;106103;1280;24430;-82
2022/06/17 03:01:38;;;;;;;22.90;15.80;;;;;;;14.94;87.60;98641.13;106304;1278;22544;-82
2022/06/17 03:04:16;;;;;;;19.40;14.40;;;;;;;14.94;87.41;98640.25;106269;1277;22610;-82
2022/06/17 03:06:46;;;;;;;19.80;15.00;;;;;;;14.95;87.32;98639.74;106203;1278;138771;-82
2022/06/17 03:09:18;;;;;;;18.60;15.10;;;;;;;14.96;87.36;98649.56;106224;1277;25394;-82
2022/06/17 03:11:53;;;;;;;18.90;14.00;;;;;;;14.96;87.19;98658.84;106051;1277;138030;-82
2022/06/17 03:14:21;;;;;;;18.60;14.20;;;;;;;14.97;87.27;98662.85;106148;1278;22637;-82
2022/06/17 03:16:52;;;;;;;21.00;14.10;;;;;;;14.98;87.00;98667.95;106089;1280;24431;-82
2022/06/17 03:19:23;;;;;;;21.70;15.50;;;;;;;15.00;87.18;98670.30;106347;1278;24380;-82
2022/06/17 03:21:49;;;;;;;19.80;14.70;;;;;;;15.02;86.77;98668.08;106497;1277;22608;-82
2022/06/17 03:24:24;;;;;;;22.40;14.50;;;;;;;15.01;86.90;98665.06;106086;1277;137843;-82
2022/06/17 03:27:01;;;;;;;16.30;13.70;;;;;;;15.02;86.80;98666.54;106111;1277;30750;-82
2022/06/17 03:29:33;;;;;;;20.70;15.40;;;;;;;15.03;86.93;98665.98;106393;1277;138393;-82
2022/06/17 03:32:07;;;;;;;21.40;15.20;;;;;;;15.07;86.88;98675.39;106535;1277;24290;-82
2022/06/17 03:34:38;;;;;;;21.10;16.00;;;;;;;15.09;86.90;98674.68;106500;1277;22560;-82
2022/06/17 03:37:31;;;;;;;20.50;15.20;;;;;;;15.10;86.86;98675.73;106429;1277;137929;-82
2022/06/17 03:40:07;;;;;;;19.80;15.30;;;;;;;15.12;86.58;98676.93;106264;1280;24094;-82
2022/06/17 03:42:53;;;;;;;17.90;14.30;;;;;;;15.14;86.81;98679.91;106493;1280;138284;-82
2022/06/17 03:45:27;;;;;;;21.80;15.60;;;;;;;15.16;86.66;98678.55;106483;1277;22555;-82
2022/06/17 03:48:19;;;;;;;20.40;16.50;;;;;;;15.18;86.33;98676.46;106572;1277;137782;-82
2022/06/17 03:51:01;;;;;;;20.90;15.10;;;;;;;15.18;86.43;98676.80;106810;1277;22656;-82
2022/06/17 03:53:41;;;;;;;19.20;13.70;;;;;;;15.23;86.91;98684.21;106419;1277;138918;-82
2022/06/17 03:56:22;;;;;;;19.70;14.60;;;;;;;15.32;86.86;98688.80;106581;1280;22550;-81
2022/06/17 03:58:53;;;;;;;16.90;14.30;;;;;;;15.38;86.81;98693.91;106159;1278;138022;-81
2022/06/17 04:01:30;;;;;;;19.80;15.30;;;;;;;15.40;86.32;98695.78;106250;1280;22571;-82
2022/06/17 04:04:29;;;;;;;22.60;15.70;;;;;;;15.44;86.56;98701.99;106420;1277;22603;-81
2022/06/17 04:06:59;;;;;;;17.30;14.20;;;;;;;15.50;86.50;98704.86;106181;1280;138296;-82
2022/06/17 04:09:32;;;;;;;20.50;14.70;;;;;;;15.58;86.41;98707.30;106398;1277;24318;-82
2022/06/17 04:12:03;;;;;;;20.10;14.20;;;;;;;15.63;86.28;98706.04;106151;1277;138147;-82
2022/06/17 04:14:51;;;;;;;20.30;15.30;;;;;;;15.68;86.27;98707.59;106188;1277;22844;-81
2022/06/17 04:17:42;;;;;;;19.60;13.70;;;;;;;15.74;86.34;98708.92;106227;1277;138100;-82
2022/06/17 04:20:26;;;;;;;16.60;13.30;;;;;;;15.72;85.48;98716.21;106526;1278;22591;-82
2022/06/17 04:22:59;;;;;;;19.40;14.20;;;;;;;15.71;86.03;98728.07;106358;1277;139078;-83
2022/06/17 04:25:59;;;;;;;22.70;15.50;;;;;;;15.78;86.42;98732.45;106305;1278;26083;-83
2022/06/17 04:28:33;;;;;;;19.30;15.00;;;;;;;15.85;86.49;98729.33;106809;1277;25443;-83
2022/06/17 04:31:06;;;;;;;19.80;14.60;;;;;;;15.92;86.46;98730.49;106429;1277;138714;-83
2022/06/17 04:33:41;;;;;;;23.20;14.80;;;;;;;15.94;86.33;98742.95;106315;1277;22569;-83
2022/06/17 04:36:20;;;;;;;21.00;15.50;;;;;;;15.96;86.13;98742.48;106464;1277;138357;-83
2022/06/17 04:38:56;;;;;;;22.80;15.90;;;;;;;15.94;85.67;98740.94;106715;1277;23274;-83
2022/06/17 04:41:52;;;;;;;25.40;16.80;;;;;;;15.93;85.83;98739.23;106804;1277;137645;-84
2022/06/17 04:45:21;;;;;;;20.90;16.40;;;;;;;15.93;86.06;98741.30;106406;1278;22636;-83
2022/06/17 04:48:20;;;;;;;21.20;16.70;;;;;;;15.93;85.63;98756.91;106729;1277;138328;-79
2022/06/17 04:51:34;;;;;;;28.80;18.10;;;;;;;15.91;85.56;98748.89;106512;1277;25380;-80
2022/06/17 04:54:21;;;;;;;24.40;17.20;;;;;;;15.91;86.19;98743.17;106484;1277;137801;-81
2022/06/17 04:58:00;;;;;;;24.20;18.10;;;;;;;15.98;86.11;98736.05;106088;1284;24240;-82
2022/06/17 05:00:28;;;;;;;21.80;16.50;;;;;;;16.00;86.14;98729.07;106352;1280;137784;-83
2022/06/17 05:03:01;;;;;;;25.00;16.20;;;;;;;16.01;85.97;98728.02;106795;1278;24451;-83
2022/06/17 05:05:41;;;;;;;23.30;17.70;;;;;;;16.04;86.20;98732.86;106414;1278;138236;-83
2022/06/17 05:08:20;;;;;;;25.90;18.50;;;;;;;16.06;86.26;98741.48;106533;1277;22598;-84
2022/06/17 05:10:58;;;;;;;27.20;18.70;;;;;;;16.10;86.16;98747.10;106314;1277;22571;-84
2022/06/17 05:13:38;;;;;;;22.20;16.30;;;;;;;16.16;86.21;98750.40;106825;1277;23652;-85
2022/06/17 05:16:12;;;;;;;22.50;17.00;;;;;;;16.21;85.94;98747.59;106389;1277;22569;-83
2022/06/17 05:18:44;;;;;;;28.20;17.60;;;;;;;16.25;85.98;98744.56;106316;1279;138316;-84
2022/06/17 05:21:21;;;;;;;23.40;17.90;;;;;;;16.27;85.87;98740.55;106996;1277;22574;-84
2022/06/17 05:23:54;;;;;;;24.30;18.30;;;;;;;16.32;85.97;98742.20;106333;1279;137620;-84
2022/06/17 05:26:21;;;;;;;23.40;16.90;;;;;;;16.41;86.15;98749.89;106468;1279;22591;-84
2022/06/17 05:28:49;;;;;;;19.70;15.40;;;;;;;16.48;86.08;98757.63;106681;1277;22590;-84
2022/06/17 05:31:21;;;;;;;20.40;14.30;;;;;;;16.55;85.88;98759.61;106947;1276;25466;-83
2022/06/17 05:33:55;;;;;;;17.70;15.20;;;;;;;16.61;85.85;98763.13;106494;1277;22595;-84
2022/06/17 05:36:24;;;;;;;19.80;13.80;;;;;;;16.65;85.68;98772.23;106592;1277;137519;-85
2022/06/17 05:38:51;;;;;;;18.50;13.50;;;;;;;16.66;85.36;98771.35;106446;1277;25410;-84
2022/06/17 05:41:23;;;;;;;16.40;12.90;;;;;;;16.65;85.00;98771.48;106289;1277;138866;-85
2022/06/17 05:43:52;;;;;;;15.50;12.90;;;;;;;16.66;85.04;98770.48;106296;1277;22569;-85
2022/06/17 05:47:08;;;;;;;18.70;13.00;;;;;;;16.72;84.99;98765.14;106509;1277;137907;-85
2022/06/17 05:50:50;;;;;;;15.20;12.90;;;;;;;16.76;84.93;98771.73;106569;1277;30518;-85
2022/06/17 05:53:32;;;;;;;16.00;12.50;;;;;;;16.82;84.72;98768.65;106629;1277;137690;-85
2022/06/17 05:56:21;;;;;;;13.60;11.70;;;;;;;16.90;84.66;98769.70;106835;1277;24237;-85
2022/06/17 05:58:49;;;;;;;15.50;11.30;;;;;;;16.97;84.90;98774.41;106489;1277;22654;-85
2022/06/17 06:01:17;;;;;;;14.90;12.00;;;;;;;17.08;84.75;98778.23;106284;1277;25440;-85
2022/06/17 06:03:47;;;;;;;15.20;12.00;;;;;;;17.20;84.20;98778.30;106205;1277;25384;-86
2022/06/17 06:06:18;;;;;;;12.60;11.10;;;;;;;17.31;83.81;98780.30;106448;1277;137998;-86
2022/06/17 06:08:48;;;;;;;13.50;11.30;;;;;;;17.38;83.23;98782.37;106755;1277;23429;-86
2022/06/17 06:11:16;;;;;;;12.30;11.00;;;;;;;17.44;83.29;98783.89;106729;1277;138809;-86
2022/06/17 06:13:44;;;;;;;11.10;9.70;;;;;;;17.50;82.89;98786.55;106595;1280;24406;-88
2022/06/17 06:16:15;;;;;;;14.60;10.70;;;;;;;17.52;82.59;98791.72;106742;1277;22566;-87
2022/06/17 06:18:58;;;;;;;13.00;11.70;;;;;;;17.54;81.80;98798.05;106723;1277;138551;-87
2022/06/17 06:21:46;;;;;;;15.40;11.70;;;;;;;17.59;81.70;98798.96;106834;1279;25367;-88
2022/06/17 06:24:16;;;;;;;11.40;10.10;;;;;;;17.69;81.72;98799.35;106433;1277;138304;-90
2022/06/17 06:26:43;;;;;;;13.20;11.00;;;;;;;17.80;81.69;98795.78;106447;1277;25347;-90
2022/06/17 06:29:29;;;;;;;14.60;10.30;;;;;;;17.95;81.06;98799.78;106582;1277;138353;-87
2022/06/17 06:31:59;;;;;;;13.20;11.80;;;;;;;18.07;81.19;98801.27;106637;1277;22548;-93
2022/06/17 06:34:47;;;;;;;12.40;10.10;;;;;;;18.14;80.69;98802.36;106629;1277;24257;-92
2022/06/17 06:37:42;;;;;;;13.40;11.70;;;;;;;18.18;80.01;98798.59;106658;1277;22820;-95
2022/06/17 06:40:16;;;;;;;9.80;8.80;;;;;;;18.30;79.55;98801.91;107196;1278;23891;-88
2022/06/17 06:43:20;;;;;;;12.40;10.80;;;;;;;18.46;79.43;98803.94;106237;1277;137227;-87
2022/06/17 06:46:13;;;;;;;;;;;;;;;18.50;78.92;98804.67;106675;1277;22540;-82
2022/06/17 06:48:53;;;;;;;15.40;11.60;;;;;;;18.45;78.39;98805.66;106085;1277;124495;-78
2022/06/17 06:51:34;;;;;;;16.00;10.50;;;;;;;18.34;78.87;98814.30;106323;1277;22710;-86
2022/06/17 06:54:01;;;;;;;14.50;12.40;;;;;;;18.23;78.63;98812.98;106785;1277;137686;-89
2022/06/17 06:56:32;;;;;;;13.00;11.80;;;;;;;18.08;78.63;98812.70;106871;1277;22597;-89
2022/06/17 06:59:00;;;;;;;16.40;12.70;;;;;;;17.90;78.60;98811.10;106429;1278;138917;-90
2022/06/17 07:01:27;;;;;;;14.40;12.30;;;;;;;17.72;78.81;98810.47;106782;1280;23144;-87
2022/06/17 07:04:29;;;;;;;14.40;12.80;;;;;;;17.56;79.38;98813.34;106319;1278;24101;-88
2022/06/17 07:07:45;;;;;;;15.40;13.50;;;;;;;17.32;79.79;98817.84;106565;1277;22743;-90
2022/06/17 07:10:24;;;;;;;16.50;14.30;;;;;;;17.11;80.09;98828.97;106653;1277;23201;-88
2022/06/17 07:12:58;;;;;;;20.50;16.20;;;;;;;16.87;80.70;98829.56;106410;1277;138154;-88
2022/06/17 07:15:29;;;;;;;22.80;15.90;;;;;;;16.68;81.22;98830.65;107371;1276;22576;-89
2022/06/17 07:18:17;;;;;;;25.90;16.50;;;;;;;16.65;81.78;98829.18;107137;1277;138557;-87
2022/06/17 07:21:28;;;;;;;16.80;14.70;;;;;;;16.78;82.42;98826.46;107128;1277;22550;-88
2022/06/17 07:24:53;;;;;;;20.00;17.40;;;;;;;17.02;82.66;98828.27;103619;1312;545521;-92
2022/06/17 07:27:52;;;;;;;17.50;14.50;;;;;;;17.31;83.19;98825.73;106563;1277;24309;-88
2022/06/17 07:30:33;;;;;;;16.80;14.30;;;;;;;17.39;82.22;98827.50;106390;1277;137666;-88
2022/06/17 07:33:01;;;;;;;17.10;13.50;;;;;;;17.36;80.40;98829.19;106213;1281;25593;-87
2022/06/17 07:36:10;;;;;;;18.30;14.90;;;;;;;17.28;80.37;98831.95;105900;1280;137096;-91
2022/06/17 07:41:52;;;;;;;16.30;13.90;;;;;;;17.07;80.30;98835.31;106391;1276;137873;-86
2022/06/17 07:44:26;;;;;;;16.00;14.30;;;;;;;17.09;80.28;98834.48;106286;1277;22550;-89
2022/06/17 07:46:57;;;;;;;17.70;15.30;;;;;;;17.21;80.60;98831.80;105985;1278;137972;-87
2022/06/17 07:49:26;;;;;;;;;;;;;;;17.43;80.71;98834.11;106321;1277;22515;-83
2022/06/17 07:51:54;;;;;;;19.30;15.50;;;;;;;17.63;80.66;98838.10;106406;1277;22654;-82
2022/06/17 07:54:57;;;;;;;17.70;13.60;;;;;;;17.79;79.42;98840.45;106327;1277;138851;-88
2022/06/17 07:57:34;;;;;;;16.60;13.20;;;;;;;17.87;78.28;98843.98;106403;1278;22729;-87
2022/06/17 08:00:06;;;;;;;15.50;13.90;;;;;;;17.90;78.01;98841.20;106104;1281;138314;-87
2022/06/17 08:02:39;;;;;;;18.00;15.20;;;;;;;17.97;77.82;98843.70;106278;1277;22613;-88
2022/06/17 08:05:08;;;;;;;20.20;16.00;;;;;;;18.00;77.10;98842.41;106432;1276;137484;-88
2022/06/17 08:07:36;;;;;;;18.70;15.60;;;;;;;18.04;77.23;98840.35;106060;1276;25366;-86
2022/06/17 08:10:04;;;;;;;15.80;13.70;;;;;;;18.14;77.13;98841.10;106107;1276;25670;-88
2022/06/17 08:12:40;;;;;;;21.50;15.90;;;;;;;18.24;77.29;98844.96;106908;1276;138184;-88
2022/06/17 08:15:38;;;;;;;20.40;15.70;;;;;;;18.52;77.83;98850.77;106239;1277;22698;-88
2022/06/17 08:18:06;;;;;;;19.80;17.00;;;;;;;18.76;76.00;98846.71;106350;1277;137492;-91
2022/06/17 08:20:35;;;;;;;18.10;15.50;;;;;;;18.91;75.93;98845.55;106371;1277;23452;-90
2022/06/17 08:23:05;;;;;;;17.70;15.10;;;;;;;19.17;75.13;98847.02;106170;1277;137340;-88
2022/06/17 08:25:36;;;;;;;18.60;16.00;;;;;;;19.39;74.94;98849.38;106179;1277;23488;-90
2022/06/17 08:28:09;;;;;;;17.80;13.90;;;;;;;19.62;73.82;98845.85;105861;1278;23453;-90
2022/06/17 08:30:41;;;;;;;16.00;12.80;;;;;;;19.73;73.54;98846.27;106033;1277;137769;-92
2022/06/17 08:33:10;;;;;;;14.90;12.30;;;;;;;19.77;71.76;98851.83;106127;1276;25319;-89
2022/06/17 08:35:54;;;;;;;14.60;12.60;;;;;;;19.72;70.85;98851.75;105897;1279;137184;-88
2022/06/17 08:38:26;;;;;;;16.70;12.20;;;;;;;19.66;70.89;98847.55;105897;1277;22626;-88
2022/06/17 08:40:54;;;;;;;16.20;13.20;;;;;;;19.64;70.46;98850.02;106741;1278;137579;-90
2022/06/17 08:43:41;;;;;;;17.20;12.80;;;;;;;19.55;70.28;98854.95;106095;1278;24334;-90
2022/06/17 08:46:21;;;;;;;16.50;12.50;;;;;;;19.45;70.54;98855.22;106336;1278;25398;-94
2022/06/17 08:49:01;;;;;;;14.60;13.10;;;;;;;19.35;70.43;98855.54;106170;1278;137391;-90
2022/06/17 08:51:57;;;;;;;12.60;11.00;;;;;;;19.31;71.38;98859.18;106369;1278;23219;-88
2022/06/17 08:54:54;;;;;;;16.70;11.80;;;;;;;19.28;70.73;98863.58;106404;1278;137528;-90
2022/06/17 08:57:54;;;;;;;14.90;11.50;;;;;;;19.17;70.72;98867.40;106296;1277;32300;-92
2022/06/17 09:00:44;;;;;;;14.30;12.80;;;;;;;19.11;70.47;98867.51;106063;1278;137295;-90
2022/06/17 09:03:36;;;;;;;16.40;12.00;;;;;;;19.05;71.18;98866.63;106314;1277;22544;-92
2022/06/17 09:06:50;;;;;;;14.40;11.00;;;;;;;19.08;71.18;98874.45;106395;1277;138072;-92
2022/06/17 09:14:17;;;;;;;16.40;10.90;;;;;;;19.11;71.05;98882.52;107112;1281;22737;-89
2022/06/17 09:18:17;;;;;;;16.00;11.00;;;;;;;19.12;71.37;98892.02;106196;1281;137861;-92
2022/06/17 09:20:49;;;;;;;12.70;11.40;;;;;;;19.06;70.90;98906.64;106355;1280;22576;-93
2022/06/17 09:23:25;;;;;;;14.30;6.60;;;;;;;19.16;71.37;98904.13;106186;1281;137164;-93
2022/06/17 09:25:56;;;;;;;5.60;4.30;;;;;;;19.54;68.85;98905.45;105890;1281;23005;-95
2022/06/17 09:28:33;;;;;;;6.10;4.20;;;;;;;19.89;65.45;98901.64;106011;1281;22802;-94
2022/06/17 09:31:46;;;;;;;5.80;4.00;;;;;;;20.32;66.04;98899.46;105907;1281;136710;-91
2022/06/17 09:34:48;;;;;;;11.80;9.50;;;;;;;20.62;65.75;98900.04;105754;1281;22729;-90
2022/06/17 09:38:21;;;;;;;13.20;10.60;;;;;;;20.49;65.66;98896.89;105985;1281;25640;-94
2022/06/17 09:41:06;;;;;;;11.30;10.10;;;;;;;20.43;66.12;98901.02;105905;1284;23132;-94
2022/06/17 09:44:06;;;;;;;11.80;10.60;;;;;;;20.37;66.12;98908.02;107093;1281;22557;-89
2022/06/17 09:47:14;;;;;;;16.30;10.70;;;;;;;20.20;66.66;98904.06;106834;1281;138426;-88
2022/06/17 09:50:07;;;;;;;8.50;5.10;;;;;;;20.00;65.49;98907.53;106643;1284;30962;-91
2022/06/17 09:53:05;;;;;;;18.40;14.00;;;;;;;19.81;65.86;98914.79;106359;1284;24335;-94
2022/06/17 09:56:24;;;;;;;21.70;15.50;;;;;;;19.74;66.88;98914.75;106663;1282;23491;-95
2022/06/17 10:00:16;;;;;;;18.80;14.30;;;;;;;20.06;67.99;98908.67;106521;1281;137127;-93
2022/06/17 10:02:52;;;;;;;21.60;12.70;;;;;;;20.15;67.55;98916.63;106314;1284;22570;-95
2022/06/17 10:10:03;;;;;;;7.80;3.20;;;;;;;20.55;61.31;98915.91;106425;1281;22541;-93
2022/06/17 10:13:10;;;;;;;3.40;2.60;;;;;;;20.54;60.46;98916.23;106662;1284;137116;-91
2022/06/17 10:19:02;;;;;;;5.50;3.10;;;;;;;20.36;58.71;98917.16;106870;1281;137502;-81
2022/06/17 10:22:20;;;;;;;6.70;3.40;;;;;;;20.47;59.30;98918.27;106618;1281;22576;-92
2022/06/17 10:24:59;;;;;;;6.70;3.40;;;;;;;20.67;60.12;98915.24;106664;1280;137038;-81
2022/06/17 10:27:42;;;;;;;4.50;3.20;;;;;;;21.07;59.55;98918.59;106771;1281;22563;-81
2022/06/17 10:30:20;;;;;;;5.70;3.20;;;;;;;21.28;58.22;98918.65;106975;1280;137562;-79
2022/06/17 10:32:51;;;;;;;3.70;3.10;;;;;;;21.17;56.76;98918.41;105953;1281;22869;-81
2022/06/17 10:35:36;;;;;;;5.10;3.00;;;;;;;21.05;57.30;98921.11;106811;1280;137815;-75
2022/06/17 10:38:07;;;;;;;3.80;3.30;;;;;;;21.27;57.55;98917.90;106361;1281;22622;-75
2022/06/17 10:40:38;;;;;;;5.00;3.20;;;;;;;21.47;55.93;98919.77;106470;1280;22575;-75
2022/06/17 10:43:13;;;;;;;5.90;3.60;;;;;;;21.63;53.17;98920.55;106827;1279;137329;-76
2022/06/17 10:45:41;;;;;;;6.30;3.10;;;;;;;21.69;53.53;98917.48;105953;1280;23229;-75
2022/06/17 10:48:24;;;;;;;3.60;3.30;;;;;;;21.78;53.37;98917.47;106045;1280;137400;-76
2022/06/17 10:50:51;;;;;;;4.30;2.80;;;;;;;21.81;53.33;98920.17;106298;1280;24278;-78
2022/06/17 10:53:29;;;;;;;3.20;2.70;;;;;;;21.90;52.62;98918.36;105958;1280;137894;-79
2022/06/17 10:56:00;;;;;;;6.30;3.30;;;;;;;21.96;51.02;98913.27;105809;1283;22551;-79
2022/06/17 10:58:33;;;;;;;4.00;3.40;;;;;;;22.06;52.77;98912.96;106059;1281;22845;-79
2022/06/17 11:01:15;;;;;;;5.80;3.40;;;;;;;22.29;52.91;98903.88;106038;1281;138191;-80
2022/06/17 11:03:48;;;;;;;3.80;3.00;;;;;;;22.55;51.08;98897.42;106243;1280;23936;-79
2022/06/17 11:06:19;;;;;;;4.30;3.40;;;;;;;22.76;51.03;98896.10;106063;1280;137584;-80
2022/06/17 11:08:49;;;;;;;5.00;2.90;;;;;;;22.91;50.05;98893.16;105982;1281;22903;-79
2022/06/17 11:15:31;;;;;;;3.30;3.00;;;;;;;23.23;49.19;98891.69;106396;1280;24340;-80
2022/06/17 11:18:33;;;;;;;7.20;3.20;;;;;;;23.33;49.17;98891.39;105585;1284;137009;-80
2022/06/17 11:21:04;;;;;;;3.90;2.30;;;;;;;23.04;47.20;98901.76;106338;1280;25409;-79
2022/06/17 11:23:38;;;;;;;2.90;2.10;;;;;;;22.57;45.30;98903.98;106040;1281;137305;-80
2022/06/17 11:26:19;;;;;;;4.20;2.80;;;;;;;22.16;48.02;98911.46;106300;1280;24234;-80
2022/06/17 11:28:51;;;;;;;3.10;2.70;;;;;;;22.07;49.66;98915.29;106069;1281;24392;-80
2022/06/17 11:31:22;;;;;;;5.20;2.70;;;;;;;22.29;49.93;98905.20;106286;1281;25348;-80
2022/06/17 11:33:52;;;;;;;4.00;3.00;;;;;;;22.52;47.90;98900.05;105985;1280;25368;-80
2022/06/17 11:36:34;;;;;;;3.70;2.90;;;;;;;22.75;49.14;98897.00;106019;1280;137141;-79
2022/06/17 11:39:25;;;;;;;5.20;2.60;;;;;;;22.65;47.26;98893.13;105743;1281;24244;-79
2022/06/17 11:41:53;;;;;;;3.10;2.60;;;;;;;22.10;47.56;98899.40;105752;1277;137156;-79
2022/06/17 11:44:24;;;;;;;2.70;2.50;;;;;;;21.69;49.03;98911.50;106613;1277;22686;-79
2022/06/17 11:47:02;;;;;;;5.10;2.60;;;;;;;21.56;50.30;98914.95;106642;1277;23246;-79
2022/06/17 11:49:53;;;;;;;4.80;2.80;;;;;;;21.81;50.91;98914.54;105976;1278;22582;-79
2022/06/17 11:52:34;;;;;;;2.80;2.50;;;;;;;22.08;48.74;98912.71;106209;1278;22587;-78
2022/06/17 11:55:04;;;;;;;3.70;2.30;;;;;;;22.32;47.11;98912.98;105588;1278;137101;-80
2022/06/17 11:57:36;;;;;;;4.30;2.30;;;;;;;22.52;46.35;98908.86;106425;1277;22547;-79
2022/06/17 12:00:21;;;;;;;2.50;2.30;;;;;;;22.75;45.91;98907.77;106098;1277;137298;-79
2022/06/17 12:03:03;;;;;;;5.50;2.50;;;;;;;22.85;47.19;98911.19;106135;1277;24316;-80
2022/06/17 12:05:39;;;;;;;3.60;2.50;;;;;;;23.02;47.06;98910.89;106085;1277;137208;-79
2022/06/17 12:08:07;;;;;;;5.20;2.60;;;;;;;23.21;47.03;98912.44;106254;1276;25304;-79
2022/06/17 12:10:49;;;;;;;5.80;3.00;;;;;;;23.38;46.77;98911.42;106326;1277;22559;-80
2022/06/17 12:13:37;;;;;;;3.40;2.10;;;;;;;23.39;46.09;98911.56;106087;1276;137088;-80
2022/06/17 12:16:19;;;;;;;8.30;2.20;;;;;;;23.08;42.75;98915.52;106036;1278;22556;-79
2022/06/17 12:18:52;;;;;;;4.00;2.30;;;;;;;23.02;42.10;98913.27;105997;1277;137154;-80
2022/06/17 12:21:31;;;;;;;3.60;2.20;;;;;;;23.13;43.40;98915.07;106463;1277;24349;-80
2022/06/17 12:24:17;;;;;;;1.90;1.80;;;;;;;23.23;41.90;98905.94;106532;1277;137336;-80
2022/06/17 12:27:36;;;;;;;2.70;2.40;;;;;;;23.03;43.94;98904.92;106520;1277;24313;-81